Time;durP1;ratioP1;P1;durP2;ratioP2;P2;SDS_P1;SDS_P2;PMS_P1;PMS_P2;Temp;Humidity;BMP_temperature;BMP_pressure;BME280_temperature;BME280_humidity;BME280_pressure;Samples;Min_cycle;Max_cycle;Signal;HPM_P1;HPM_P2
2022/08/29 00:01:13;;;;;;;2.17;0.97;;;19.00;51.30;;;;;;5072916;28;20444;-79
2022/08/29 00:03:39;;;;;;;2.95;0.90;;;19.00;51.30;;;;;;5048836;28;20047;-79
2022/08/29 00:06:05;;;;;;;1.73;0.80;;;18.90;51.40;;;;;;5052396;28;20118;-80
2022/08/29 00:08:31;;;;;;;1.95;0.90;;;18.90;51.40;;;;;;5073965;28;20070;-79
2022/08/29 00:10:57;;;;;;;1.33;0.80;;;18.80;51.80;;;;;;5073572;28;20223;-79
2022/08/29 00:13:22;;;;;;;1.50;0.88;;;18.80;51.60;;;;;;5053545;28;20120;-79
2022/08/29 00:15:49;;;;;;;1.70;0.80;;;18.70;51.70;;;;;;5065989;28;20055;-79
2022/08/29 00:18:17;;;;;;;1.27;0.90;;;18.70;51.80;;;;;;5074996;28;20117;-79
2022/08/29 00:20:44;;;;;;;1.48;0.80;;;18.60;52.10;;;;;;5052202;28;20028;-79
2022/08/29 00:23:10;;;;;;;2.33;0.98;;;18.60;52.00;;;;;;5052265;28;20016;-79
2022/08/29 00:25:36;;;;;;;2.25;1.10;;;18.50;52.10;;;;;;5059898;28;20046;-79
2022/08/29 00:28:02;;;;;;;1.67;1.00;;;18.50;52.20;;;;;;5048256;28;20222;-79
2022/08/29 00:30:30;;;;;;;2.00;1.10;;;18.40;52.40;;;;;;5076833;28;20028;-80
2022/08/29 00:32:55;;;;;;;1.67;0.90;;;18.40;52.60;;;;;;5067500;28;20103;-79
2022/08/29 00:35:26;;;;;;;1.52;0.80;;;18.40;52.70;;;;;;5055107;28;20031;-79
2022/08/29 00:37:53;;;;;;;1.67;0.90;;;18.30;53.20;;;;;;5057005;28;20607;-79
2022/08/29 00:40:25;;;;;;;1.20;0.80;;;18.30;52.80;;;;;;5070682;28;20016;-79
2022/08/29 00:42:51;;;;;;;2.05;1.08;;;18.30;53.50;;;;;;5066221;28;20024;-79
2022/08/29 00:45:17;;;;;;;1.43;0.93;;;18.20;53.00;;;;;;5061857;28;20043;-79
2022/08/29 00:47:51;;;;;;;2.20;0.90;;;18.20;53.20;;;;;;5069500;28;20050;-79
2022/08/29 00:50:53;;;;;;;1.60;1.00;;;18.10;53.80;;;;;;5057234;28;20083;-79
2022/08/29 00:53:29;;;;;;;1.80;1.02;;;18.10;55.00;;;;;;5052396;28;20114;-80
2022/08/29 00:55:56;;;;;;;1.60;1.00;;;18.10;53.80;;;;;;5067251;28;20028;-80
2022/08/29 00:58:35;;;;;;;2.60;0.90;;;18.10;53.40;;;;;;5055945;28;20531;-80
2022/08/29 01:01:01;;;;;;;1.50;1.00;;;18.00;55.50;;;;;;5059717;28;20592;-79
2022/08/29 01:03:29;;;;;;;1.40;0.90;;;18.00;53.60;;;;;;5076437;28;20035;-79
2022/08/29 01:05:55;;;;;;;2.13;0.98;;;17.90;53.70;;;;;;5047628;28;20496;-79
2022/08/29 01:08:21;;;;;;;1.67;0.88;;;17.90;53.80;;;;;;5070674;28;20247;-79
2022/08/29 01:13:36;;;;;;;2.22;0.93;;;17.90;54.00;;;;;;5075941;28;20492;-79
2022/08/29 01:16:03;;;;;;;2.17;0.98;;;17.90;54.50;;;;;;5061353;28;20217;-80
2022/08/29 01:18:31;;;;;;;1.52;1.00;;;17.80;54.20;;;;;;5076881;28;20405;-80
2022/08/29 01:20:59;;;;;;;1.95;1.10;;;17.80;54.40;;;;;;5069813;28;20039;-80
2022/08/29 01:23:34;;;;;;;2.37;0.90;;;17.80;54.80;;;;;;5059491;28;20532;-80
2022/08/29 01:26:02;;;;;;;1.83;1.20;;;17.70;55.30;;;;;;5070517;28;20046;-80
2022/08/29 01:28:34;;;;;;;2.05;1.00;;;17.70;54.80;;;;;;5078441;28;20103;-80
2022/08/29 01:31:07;;;;;;;2.03;1.10;;;17.70;55.20;;;;;;5089817;28;20032;-80
2022/08/29 01:33:41;;;;;;;1.40;1.00;;;17.60;55.30;;;;;;5061165;28;20024;-80
2022/08/29 01:36:09;;;;;;;2.13;1.00;;;17.60;56.50;;;;;;5078534;28;20046;-80
2022/08/29 01:38:37;;;;;;;1.40;0.90;;;17.60;55.20;;;;;;5059812;28;20085;-80
2022/08/29 01:41:04;;;;;;;2.88;1.10;;;17.50;55.40;;;;;;5065038;28;20028;-79
2022/08/29 01:43:36;;;;;;;1.40;0.90;;;17.50;55.40;;;;;;5079428;28;20189;-79
2022/08/29 01:46:02;;;;;;;1.52;1.00;;;17.40;55.50;;;;;;5066413;28;20032;-80
2022/08/29 01:48:28;;;;;;;1.93;1.03;;;17.40;55.60;;;;;;5060148;28;20012;-80
2022/08/29 01:50:55;;;;;;;2.45;1.15;;;17.40;55.60;;;;;;5077094;28;20032;-80
2022/08/29 01:53:21;;;;;;;2.08;0.98;;;17.40;56.00;;;;;;5058960;28;20055;-80
2022/08/29 01:55:47;;;;;;;2.20;1.20;;;17.30;55.90;;;;;;5058379;28;20059;-80
2022/08/29 01:58:12;;;;;;;1.40;0.90;;;17.30;56.00;;;;;;5075314;28;20107;-80
2022/08/29 02:00:39;;;;;;;2.83;1.30;;;17.30;56.10;;;;;;5058600;28;20048;-80
2022/08/29 02:03:06;;;;;;;2.10;1.05;;;17.30;56.90;;;;;;5070352;28;20020;-80
2022/08/29 02:05:32;;;;;;;2.38;1.10;;;17.20;56.20;;;;;;5066416;28;20024;-80
2022/08/29 02:07:57;;;;;;;1.80;1.27;;;17.20;56.30;;;;;;5077721;28;20567;-80
2022/08/29 02:10:24;;;;;;;2.38;1.15;;;17.20;56.50;;;;;;5061540;28;20488;-79
2022/08/29 02:12:51;;;;;;;2.20;1.20;;;17.10;56.60;;;;;;5077386;28;20032;-79
2022/08/29 02:15:17;;;;;;;3.83;1.33;;;17.10;56.60;;;;;;5060767;28;20077;-79
2022/08/29 02:17:43;;;;;;;3.13;1.10;;;17.10;57.40;;;;;;5068232;28;20430;-80
2022/08/29 02:20:09;;;;;;;1.30;1.00;;;17.00;56.90;;;;;;5077225;28;20104;-80
2022/08/29 02:22:36;;;;;;;2.85;1.10;;;17.00;57.10;;;;;;5075146;28;20042;-80
2022/08/29 02:25:40;;;;;;;2.08;1.00;;;17.00;57.20;;;;;;5052490;28;20020;-80
2022/08/29 02:27:51;;;;;;;2.20;1.20;;;17.00;57.30;;;;;;5078993;28;20567;-80
2022/08/29 02:30:21;;;;;;;1.40;1.00;;;17.00;57.20;;;;;;5048068;28;20432;-80
2022/08/29 02:32:47;;;;;;;2.53;1.13;;;16.90;57.30;;;;;;5070032;28;20469;-80
2022/08/29 02:35:14;;;;;;;2.08;1.20;;;16.90;57.40;;;;;;5058866;28;20388;-80
2022/08/29 02:37:39;;;;;;;2.03;1.17;;;16.90;57.40;;;;;;5048388;28;20078;-80
2022/08/29 02:40:06;;;;;;;5.87;1.70;;;16.90;57.50;;;;;;5077768;28;20051;-80
2022/08/29 02:42:32;;;;;;;2.53;1.15;;;16.90;57.80;;;;;;5038524;28;20028;-79
2022/08/29 02:45:00;;;;;;;1.60;1.02;;;16.90;57.90;;;;;;5059889;28;20027;-80
2022/08/29 02:47:26;;;;;;;3.55;1.15;;;16.90;57.90;;;;;;5071529;28;20051;-80
2022/08/29 02:49:51;;;;;;;2.30;1.27;;;16.80;58.00;;;;;;5049251;28;20123;-80
2022/08/29 02:52:17;;;;;;;2.30;1.25;;;16.80;58.00;;;;;;5074787;28;20016;-80
2022/08/29 02:54:43;;;;;;;2.47;1.30;;;16.80;58.10;;;;;;5060149;28;20086;-80
2022/08/29 02:57:09;;;;;;;3.33;1.27;;;16.80;58.10;;;;;;5065128;28;20047;-80
2022/08/29 02:59:35;;;;;;;2.70;1.20;;;16.80;58.30;;;;;;5072836;28;20020;-80
2022/08/29 03:02:01;;;;;;;2.33;1.30;;;16.80;58.40;;;;;;5069215;28;20040;-80
2022/08/29 03:04:27;;;;;;;2.30;1.23;;;16.80;59.20;;;;;;5056194;28;20020;-80
2022/08/29 03:06:53;;;;;;;2.70;1.20;;;16.80;58.50;;;;;;5057856;28;20463;-80
2022/08/29 03:09:19;;;;;;;2.35;1.38;;;16.80;58.60;;;;;;5066376;28;20028;-80
2022/08/29 03:11:45;;;;;;;2.37;1.20;;;16.80;58.80;;;;;;5042210;28;20753;-79
2022/08/29 03:14:10;;;;;;;2.58;1.35;;;16.80;58.80;;;;;;5052665;28;20012;-80
2022/08/29 03:16:36;;;;;;;3.67;1.40;;;16.80;58.90;;;;;;5078396;28;20055;-80
2022/08/29 03:19:02;;;;;;;3.33;1.20;;;16.80;59.00;;;;;;5068205;28;20085;-80
2022/08/29 03:21:28;;;;;;;1.90;1.45;;;16.80;59.10;;;;;;5073273;28;20294;-80
2022/08/29 03:23:55;;;;;;;2.43;1.30;;;16.80;59.10;;;;;;5068843;28;20023;-80
2022/08/29 03:26:22;;;;;;;2.63;1.30;;;16.80;59.30;;;;;;5080744;28;20125;-80
2022/08/29 03:28:48;;;;;;;2.47;1.30;;;16.90;59.30;;;;;;5060641;28;20042;-79
2022/08/29 03:31:14;;;;;;;2.70;1.40;;;16.90;59.50;;;;;;5066948;28;20062;-80
2022/08/29 03:33:41;;;;;;;2.50;1.50;;;16.90;59.80;;;;;;5083208;28;20040;-80
2022/08/29 03:36:08;;;;;;;3.28;1.67;;;16.90;59.80;;;;;;5068538;28;20031;-80
2022/08/29 03:38:36;;;;;;;3.05;1.60;;;16.90;59.90;;;;;;5067466;28;20336;-80
2022/08/29 03:41:03;;;;;;;3.13;1.50;;;16.90;59.80;;;;;;5075262;28;20024;-80
2022/08/29 03:43:29;;;;;;;2.60;1.50;;;16.90;59.80;;;;;;5059575;28;20115;-80
2022/08/29 03:45:54;;;;;;;1.73;1.17;;;16.90;59.80;;;;;;5068135;28;20118;-79
2022/08/29 03:48:20;;;;;;;3.23;1.53;;;16.90;59.80;;;;;;5077782;28;20280;-80
2022/08/29 03:50:46;;;;;;;5.30;1.63;;;16.90;59.90;;;;;;5067458;28;20036;-80
2022/08/29 03:53:12;;;;;;;3.72;1.42;;;16.90;60.70;;;;;;5072634;28;20024;-80
2022/08/29 03:55:38;;;;;;;3.00;1.40;;;16.80;59.90;;;;;;5063602;28;20035;-80
2022/08/29 03:58:04;;;;;;;3.08;1.30;;;16.90;60.00;;;;;;5042809;28;20412;-80
2022/08/29 04:00:30;;;;;;;2.70;1.40;;;16.80;60.10;;;;;;5079556;28;20579;-80
2022/08/29 04:02:57;;;;;;;3.45;1.40;;;16.80;60.10;;;;;;5081762;28;20405;-80
2022/08/29 04:05:24;;;;;;;3.33;1.53;;;16.80;60.20;;;;;;5066374;28;20673;-80
2022/08/29 04:07:53;;;;;;;2.53;1.23;;;16.70;60.20;;;;;;5063954;28;20695;-81
2022/08/29 04:10:25;;;;;;;2.88;1.33;;;16.80;60.40;;;;;;5072496;28;20572;-80
2022/08/29 04:12:51;;;;;;;2.22;1.40;;;16.70;60.80;;;;;;5078084;28;20440;-80
2022/08/29 04:15:17;;;;;;;2.40;1.42;;;16.70;60.30;;;;;;5053810;28;20905;-80
2022/08/29 04:17:43;;;;;;;3.33;1.27;;;16.80;60.40;;;;;;5077117;28;20024;-80
2022/08/29 04:20:11;;;;;;;2.75;1.40;;;16.80;60.60;;;;;;5067433;28;20035;-80
2022/08/29 04:22:39;;;;;;;2.70;1.30;;;16.70;60.70;;;;;;5081689;28;20142;-80
2022/08/29 04:25:08;;;;;;;3.33;1.60;;;16.70;60.80;;;;;;5057077;28;20020;-79
2022/08/29 04:27:35;;;;;;;2.08;1.40;;;16.70;61.10;;;;;;5080867;28;20028;-80
2022/08/29 04:30:07;;;;;;;3.03;1.37;;;16.70;60.90;;;;;;5062316;28;20020;-80
2022/08/29 04:32:33;;;;;;;2.78;1.40;;;16.70;61.20;;;;;;5056409;28;20028;-80
2022/08/29 04:34:59;;;;;;;3.63;1.42;;;16.70;61.10;;;;;;5051087;28;20043;-80
2022/08/29 04:37:25;;;;;;;2.77;1.50;;;16.70;61.40;;;;;;5059376;28;20275;-80
2022/08/29 04:39:51;;;;;;;2.08;1.30;;;16.70;61.20;;;;;;5052386;28;20024;-80
2022/08/29 04:42:18;;;;;;;3.75;1.70;;;16.60;61.10;;;;;;5046335;28;20063;-80
2022/08/29 04:44:45;;;;;;;2.50;1.37;;;16.60;61.30;;;;;;5055938;28;20031;-80
2022/08/29 04:47:11;;;;;;;2.47;1.33;;;16.60;61.30;;;;;;5074347;28;20016;-80
2022/08/29 04:49:37;;;;;;;2.72;1.40;;;16.60;61.30;;;;;;5079365;28;20024;-80
2022/08/29 04:52:03;;;;;;;3.63;1.50;;;16.50;61.30;;;;;;5060195;28;20308;-80
2022/08/29 04:54:28;;;;;;;2.50;1.50;;;16.60;61.30;;;;;;5079187;28;20389;-80
2022/08/29 04:56:54;;;;;;;3.30;1.60;;;16.60;61.40;;;;;;5078281;28;20137;-80
2022/08/29 04:59:20;;;;;;;2.78;1.48;;;16.50;61.40;;;;;;5059148;28;20568;-80
2022/08/29 05:01:45;;;;;;;3.50;1.50;;;16.50;61.60;;;;;;5053753;28;20064;-80
2022/08/29 05:04:12;;;;;;;3.60;1.60;;;16.50;61.60;;;;;;5061823;28;20472;-80
2022/08/29 05:06:38;;;;;;;3.00;1.60;;;16.50;61.70;;;;;;5063562;28;20353;-81
2022/08/29 05:09:04;;;;;;;3.20;1.50;;;16.50;61.80;;;;;;5046530;28;20481;-79
2022/08/29 05:11:31;;;;;;;3.33;1.30;;;16.50;61.90;;;;;;5053651;28;20257;-80
2022/08/29 05:13:59;;;;;;;2.92;1.50;;;16.40;62.00;;;;;;5055857;28;20513;-79
2022/08/29 05:16:25;;;;;;;2.20;1.10;;;16.40;62.10;;;;;;5054299;28;20031;-80
2022/08/29 05:18:51;;;;;;;5.53;1.60;;;16.40;62.10;;;;;;5071656;28;20040;-80
2022/08/29 05:21:26;;;;;;;2.93;1.43;;;16.30;62.10;;;;;;5076877;28;20032;-80
2022/08/29 05:23:53;;;;;;;2.63;1.30;;;16.40;63.20;;;;;;5055107;28;20671;-80
2022/08/29 05:26:19;;;;;;;1.98;1.45;;;16.40;62.40;;;;;;5077862;28;20249;-80
2022/08/29 05:28:45;;;;;;;3.83;1.43;;;16.40;62.50;;;;;;5075181;28;20178;-80
2022/08/29 05:31:13;;;;;;;3.42;1.67;;;16.40;62.60;;;;;;5037157;28;20036;-80
2022/08/29 05:33:40;;;;;;;3.13;1.70;;;16.40;62.90;;;;;;5046888;28;20352;-80
2022/08/29 05:36:06;;;;;;;3.03;1.77;;;16.40;63.10;;;;;;5050214;28;20032;-79
2022/08/29 05:38:32;;;;;;;2.43;1.40;;;16.50;63.20;;;;;;5050749;28;20025;-80
2022/08/29 05:40:58;;;;;;;3.00;1.63;;;16.50;63.10;;;;;;5071881;28;20328;-80
2022/08/29 05:43:24;;;;;;;3.58;1.70;;;16.40;63.10;;;;;;5074253;28;20031;-80
2022/08/29 05:46:00;;;;;;;2.87;1.70;;;16.50;63.20;;;;;;5035768;28;20942;-79
2022/08/29 05:48:26;;;;;;;4.25;1.65;;;16.50;64.30;;;;;;5075517;28;20497;-79
2022/08/29 05:50:52;;;;;;;2.60;1.65;;;16.50;63.30;;;;;;5070419;28;21237;-80
2022/08/29 05:53:18;;;;;;;3.10;2.00;;;16.60;63.60;;;;;;5065501;28;20021;-80
2022/08/29 05:55:44;;;;;;;3.40;1.80;;;16.70;63.70;;;;;;5063379;28;20020;-79
2022/08/29 05:58:10;;;;;;;4.15;1.80;;;16.70;63.90;;;;;;5074982;28;20430;-80
2022/08/29 06:00:41;;;;;;;6.32;2.00;;;16.70;63.90;;;;;;5051458;28;20050;-80
2022/08/29 06:03:07;;;;;;;5.37;1.90;;;16.80;64.40;;;;;;5068103;28;20027;-80
2022/08/29 06:05:33;;;;;;;2.72;1.63;;;16.80;64.00;;;;;;5058233;28;20485;-80
2022/08/29 06:07:59;;;;;;;2.85;1.75;;;16.90;64.00;;;;;;5091603;28;20083;-80
2022/08/29 06:10:25;;;;;;;4.78;1.80;;;16.90;64.00;;;;;;5054955;28;20488;-79
2022/08/29 06:12:51;;;;;;;4.20;1.83;;;17.00;64.10;;;;;;5066261;28;20051;-79
2022/08/29 06:15:16;;;;;;;3.75;1.77;;;17.10;64.10;;;;;;5053461;28;20036;-79
2022/08/29 06:17:42;;;;;;;4.03;1.80;;;17.10;64.10;;;;;;5049580;28;20021;-80
2022/08/29 06:20:08;;;;;;;3.65;1.75;;;17.10;64.10;;;;;;5062344;28;20829;-80
2022/08/29 06:22:35;;;;;;;5.83;1.90;;;17.10;64.10;;;;;;5053789;28;20024;-80
2022/08/29 06:25:01;;;;;;;4.28;1.80;;;17.20;64.10;;;;;;5051594;28;22887;-80
2022/08/29 06:27:27;;;;;;;2.78;1.50;;;17.30;64.20;;;;;;5050631;28;20777;-80
2022/08/29 06:29:53;;;;;;;3.17;1.70;;;17.30;64.30;;;;;;5067818;28;20108;-80
2022/08/29 06:32:19;;;;;;;5.87;1.83;;;17.30;64.30;;;;;;5059627;28;20296;-79
2022/08/29 06:34:44;;;;;;;3.53;1.70;;;17.40;64.50;;;;;;5051044;28;20016;-79
2022/08/29 06:37:10;;;;;;;4.07;1.87;;;17.50;64.60;;;;;;5084590;28;20032;-79
2022/08/29 06:39:36;;;;;;;3.92;1.75;;;17.50;64.60;;;;;;5060623;28;20032;-79
2022/08/29 06:42:01;;;;;;;4.03;1.90;;;17.60;64.60;;;;;;5049999;28;20033;-79
2022/08/29 06:44:29;;;;;;;4.00;1.90;;;17.70;64.50;;;;;;5059892;28;20535;-79
2022/08/29 06:46:55;;;;;;;4.40;2.05;;;17.80;64.70;;;;;;5074296;28;20042;-79
2022/08/29 06:49:21;;;;;;;2.97;1.83;;;17.90;64.70;;;;;;5062284;28;20396;-80
2022/08/29 06:51:50;;;;;;;4.20;1.67;;;17.90;64.70;;;;;;5048908;28;20120;-79
2022/08/29 06:54:18;;;;;;;2.88;1.65;;;18.10;64.80;;;;;;5061765;28;20016;-80
2022/08/29 06:56:44;;;;;;;4.03;1.73;;;18.20;64.70;;;;;;5032356;28;20088;-79
2022/08/29 06:59:11;;;;;;;4.00;1.85;;;18.20;64.60;;;;;;5046374;28;20367;-79
2022/08/29 07:01:40;;;;;;;2.95;1.60;;;18.40;64.60;;;;;;5063795;28;21840;-79
2022/08/29 07:04:06;;;;;;;2.75;1.70;;;18.50;64.70;;;;;;5045648;28;20357;-79
2022/08/29 07:06:32;;;;;;;2.97;1.70;;;18.60;64.50;;;;;;5060866;28;20077;-80
2022/08/29 07:08:58;;;;;;;3.50;1.60;;;18.70;64.50;;;;;;5053742;28;20028;-79
2022/08/29 07:11:25;;;;;;;3.33;1.42;;;18.70;64.30;;;;;;5053307;28;20367;-79
2022/08/29 07:13:51;;;;;;;3.33;1.40;;;18.80;64.10;;;;;;5031055;28;20499;-79
2022/08/29 07:16:17;;;;;;;4.37;1.60;;;18.90;63.90;;;;;;5045250;28;20512;-80
2022/08/29 07:18:44;;;;;;;2.63;1.48;;;19.00;63.90;;;;;;5053385;28;20031;-80
2022/08/29 07:21:13;;;;;;;4.65;1.50;;;19.00;63.80;;;;;;5047281;28;20327;-80
2022/08/29 07:23:39;;;;;;;3.03;1.27;;;19.10;63.90;;;;;;5070858;28;20063;-80
2022/08/29 07:26:16;;;;;;;2.57;1.37;;;19.20;63.60;;;;;;5037999;28;20154;-79
2022/08/29 07:28:44;;;;;;;3.03;1.20;;;19.20;63.70;;;;;;5052313;28;20024;-79
2022/08/29 07:31:10;;;;;;;3.13;1.50;;;19.30;63.60;;;;;;5045555;28;20130;-79
2022/08/29 07:33:35;;;;;;;3.43;1.40;;;19.40;63.90;;;;;;5052257;28;20107;-79
2022/08/29 07:36:02;;;;;;;1.77;1.38;;;19.60;64.50;;;;;;5064104;28;20032;-79
2022/08/29 07:38:29;;;;;;;2.80;1.10;;;19.80;65.00;;;;;;5060845;28;20035;-79
2022/08/29 07:41:04;;;;;;;2.72;1.33;;;20.00;64.80;;;;;;5041211;28;20042;-80
2022/08/29 07:43:30;;;;;;;2.25;1.23;;;20.30;64.30;;;;;;5064278;28;20149;-79
2022/08/29 07:45:56;;;;;;;3.77;1.40;;;20.50;63.80;;;;;;5038173;28;20159;-80
2022/08/29 07:48:23;;;;;;;3.55;1.35;;;20.60;63.60;;;;;;5052345;28;20227;-79
2022/08/29 07:50:49;;;;;;;1.98;1.30;;;20.80;63.20;;;;;;5055261;28;20039;-79
2022/08/29 07:53:16;;;;;;;2.80;1.38;;;20.90;63.00;;;;;;5051141;28;20157;-79
2022/08/29 07:55:42;;;;;;;3.17;1.60;;;21.10;62.60;;;;;;5064058;28;20024;-79
2022/08/29 07:58:08;;;;;;;1.93;1.23;;;21.20;62.30;;;;;;5054407;28;20032;-79
2022/08/29 08:00:34;;;;;;;1.95;1.10;;;21.20;62.00;;;;;;5053803;28;20138;-79
2022/08/29 08:03:00;;;;;;;2.00;1.10;;;21.30;61.50;;;;;;5048532;28;20111;-79
2022/08/29 08:05:26;;;;;;;1.80;1.20;;;21.30;61.20;;;;;;5050615;28;20028;-79
2022/08/29 08:07:52;;;;;;;3.35;1.08;;;21.40;60.90;;;;;;5067548;28;20032;-79
2022/08/29 08:10:19;;;;;;;1.45;1.08;;;21.40;60.80;;;;;;5066010;28;20378;-79
2022/08/29 08:12:46;;;;;;;2.10;1.10;;;21.40;60.50;;;;;;5062095;28;20123;-79
2022/08/29 08:15:13;;;;;;;2.72;1.20;;;21.40;60.50;;;;;;5035670;28;20094;-79
2022/08/29 08:17:39;;;;;;;2.75;1.10;;;21.40;60.40;;;;;;5053468;28;20063;-80
2022/08/29 08:20:06;;;;;;;2.28;1.10;;;21.40;60.20;;;;;;5052551;28;20551;-80
2022/08/29 08:22:33;;;;;;;1.57;1.00;;;21.40;60.00;;;;;;5048837;28;20232;-80
2022/08/29 08:24:58;;;;;;;3.63;1.13;;;21.50;60.10;;;;;;5059452;28;20173;-79
2022/08/29 08:27:24;;;;;;;2.35;1.25;;;21.60;60.40;;;;;;5058815;28;20210;-79
2022/08/29 08:29:50;;;;;;;2.07;1.10;;;21.70;61.00;;;;;;5047077;28;20032;-79
2022/08/29 08:32:15;;;;;;;1.73;1.20;;;21.80;61.30;;;;;;5059701;28;20176;-79
2022/08/29 08:34:41;;;;;;;2.70;1.10;;;22.10;61.40;;;;;;5055529;28;20036;-79
2022/08/29 08:37:08;;;;;;;3.03;1.13;;;22.30;60.90;;;;;;5040534;28;20088;-80
2022/08/29 08:39:35;;;;;;;2.25;1.20;;;22.50;60.40;;;;;;5054843;28;20561;-80
2022/08/29 08:42:16;;;;;;;2.85;1.30;;;22.70;59.90;;;;;;5052398;28;20276;-79
2022/08/29 08:44:49;;;;;;;2.30;1.30;;;22.90;58.90;;;;;;5027758;28;20468;-79
2022/08/29 08:47:20;;;;;;;2.63;1.10;;;23.10;59.50;;;;;;5064743;28;20388;-79
2022/08/29 08:49:56;;;;;;;2.83;1.30;;;23.30;59.50;;;;;;5042706;28;20464;-79
2022/08/29 08:52:49;;;;;;;2.45;1.33;;;23.50;58.80;;;;;;5055982;28;20184;-79
2022/08/29 08:55:27;;;;;;;2.60;1.20;;;23.70;57.40;;;;;;5055767;28;20040;-80
2022/08/29 08:58:06;;;;;;;3.57;1.30;;;23.80;56.90;;;;;;5046343;28;20636;-79
2022/08/29 09:00:42;;;;;;;2.72;1.33;;;23.90;56.80;;;;;;5033312;28;20278;-79
2022/08/29 09:03:25;;;;;;;2.70;1.23;;;24.10;57.30;;;;;;5050394;28;20455;-80
2022/08/29 09:06:26;;;;;;;3.45;1.58;;;24.40;57.20;;;;;;5058952;28;20052;-80
2022/08/29 09:09:31;;;;;;;3.80;1.50;;;24.80;58.20;;;;;;5059044;28;20058;-80
2022/08/29 09:12:06;;;;;;;2.50;1.40;;;25.40;57.30;;;;;;5073673;28;20028;-80
2022/08/29 09:14:40;;;;;;;2.60;1.42;;;26.00;59.70;;;;;;5049349;28;20036;-79
2022/08/29 09:17:12;;;;;;;2.70;1.30;;;26.60;58.50;;;;;;5041882;28;20344;-79
2022/08/29 09:19:38;;;;;;;2.65;1.58;;;27.10;58.30;;;;;;5068691;28;20788;-80
2022/08/29 09:22:14;;;;;;;4.15;1.70;;;27.70;58.60;;;;;;5059610;28;20051;-77
2022/08/29 09:24:52;;;;;;;3.00;1.60;;;28.30;57.60;;;;;;5055088;28;20103;-77
2022/08/29 09:27:22;;;;;;;2.78;1.40;;;28.80;54.60;;;;;;5066891;28;20032;-78
2022/08/29 09:29:54;;;;;;;3.35;1.92;;;29.20;54.60;;;;;;5055988;28;20388;-79
2022/08/29 09:32:20;;;;;;;2.72;1.60;;;29.50;51.90;;;;;;5032905;28;22152;-77
2022/08/29 09:34:48;;;;;;;3.17;1.65;;;29.70;51.80;;;;;;5065770;28;20032;-77
2022/08/29 09:37:30;;;;;;;2.50;1.43;;;29.80;51.10;;;;;;5068933;28;20244;-77
2022/08/29 09:40:11;;;;;;;2.55;1.50;;;30.10;49.10;;;;;;5048079;28;20745;-77
2022/08/29 09:42:41;;;;;;;3.05;1.58;;;30.30;50.00;;;;;;5073642;28;20506;-78
2022/08/29 09:45:19;;;;;;;6.18;1.92;;;30.60;50.50;;;;;;5038070;28;20573;-78
2022/08/29 09:47:45;;;;;;;3.80;1.70;;;31.10;48.40;;;;;;5053855;28;20051;-77
2022/08/29 09:50:25;;;;;;;2.53;1.70;;;31.40;49.50;;;;;;5084972;28;20028;-77
2022/08/29 09:52:52;;;;;;;3.67;1.70;;;31.60;46.70;;;;;;5051971;28;21025;-77
2022/08/29 09:55:25;;;;;;;2.55;1.60;;;31.80;47.70;;;;;;5061509;28;20088;-78
2022/08/29 09:58:15;;;;;;;4.13;1.77;;;31.90;46.20;;;;;;5062842;28;20036;-79
2022/08/29 10:00:44;;;;;;;3.63;1.70;;;32.10;43.90;;;;;;5059638;28;20036;-77
2022/08/29 10:03:21;;;;;;;3.75;2.20;;;32.30;45.80;;;;;;5026226;28;20826;-77
2022/08/29 10:05:47;;;;;;;3.33;1.80;;;32.60;43.20;;;;;;5070531;28;20020;-78
2022/08/29 10:08:35;;;;;;;2.58;1.90;;;32.70;45.10;;;;;;5067935;28;20472;-77
2022/08/29 10:11:48;;;;;;;3.63;1.85;;;32.90;42.70;;;;;;5048563;28;20489;-78
2022/08/29 10:14:37;;;;;;;3.27;2.00;;;33.20;42.40;;;;;;5065794;28;20032;-77
2022/08/29 10:20:08;;;;;;;2.80;1.98;;;33.60;41.90;;;;;;5072574;28;20032;-77
2022/08/29 10:22:56;;;;;;;2.90;2.00;;;33.90;43.00;;;;;;5059376;28;20414;-78
2022/08/29 10:25:36;;;;;;;3.30;2.10;;;34.10;40.10;;;;;;5070665;28;20499;-77
2022/08/29 10:28:27;;;;;;;3.03;2.30;;;34.30;39.60;;;;;;5070441;28;20050;-77
2022/08/29 10:30:59;;;;;;;3.83;1.77;;;34.50;39.50;;;;;;5051542;28;20715;-78
2022/08/29 10:33:53;;;;;;;3.00;1.85;;;34.70;40.00;;;;;;5044874;28;21656;-78
2022/08/29 10:36:33;;;;;;;2.75;2.08;;;34.90;37.90;;;;;;5064909;28;20320;-77
2022/08/29 10:39:30;;;;;;;2.60;1.80;;;35.00;37.90;;;;;;5068927;28;20059;-77
2022/08/29 10:42:18;;;;;;;2.67;1.83;;;35.20;38.60;;;;;;5041956;28;20028;-77
2022/08/29 10:45:03;;;;;;;3.05;2.38;;;35.30;38.50;;;;;;5067582;28;20379;-77
2022/08/29 10:47:39;;;;;;;2.40;1.85;;;35.50;37.20;;;;;;5065974;28;21359;-77
2022/08/29 10:50:26;;;;;;;3.50;2.20;;;35.60;37.20;;;;;;5042203;28;20090;-78
2022/08/29 10:53:28;;;;;;;3.30;1.90;;;35.80;36.20;;;;;;5086222;28;20034;-78
2022/08/29 10:56:00;;;;;;;3.00;1.90;;;35.90;36.30;;;;;;5051241;28;20040;-77
2022/08/29 10:58:44;;;;;;;2.88;2.20;;;36.00;35.80;;;;;;5074842;28;20535;-77
2022/08/29 11:01:41;;;;;;;2.88;1.95;;;36.10;35.00;;;;;;5035403;28;20039;-77
2022/08/29 11:04:07;;;;;;;3.22;1.88;;;36.20;34.40;;;;;;5062777;28;20024;-77
2022/08/29 11:06:42;;;;;;;2.67;1.90;;;36.30;36.00;;;;;;5057682;28;20495;-78
2022/08/29 11:09:26;;;;;;;2.95;2.25;;;36.40;34.00;;;;;;5040716;28;20047;-77
2022/08/29 11:12:27;;;;;;;2.83;2.00;;;36.50;33.70;;;;;;5043923;28;20024;-77
2022/08/29 11:15:02;;;;;;;2.53;1.92;;;36.60;33.50;;;;;;5061011;28;20036;-77
2022/08/29 11:17:34;;;;;;;3.20;2.00;;;36.70;33.60;;;;;;5060267;28;20124;-77
2022/08/29 11:20:16;;;;;;;2.78;1.90;;;36.70;33.40;;;;;;5058060;28;20119;-77
2022/08/29 11:22:47;;;;;;;3.38;1.90;;;36.80;32.80;;;;;;5058903;28;20099;-77
2022/08/29 11:25:17;;;;;;;3.28;2.25;;;36.90;33.00;;;;;;5075041;28;20024;-77
2022/08/29 11:28:04;;;;;;;2.85;2.40;;;37.00;33.50;;;;;;5053540;28;20020;-77
2022/08/29 11:30:48;;;;;;;2.83;2.23;;;37.10;33.10;;;;;;5070202;28;20036;-77
2022/08/29 11:33:26;;;;;;;3.65;2.25;;;37.20;31.90;;;;;;5064172;28;20020;-77
2022/08/29 11:36:12;;;;;;;3.45;2.10;;;37.30;31.90;;;;;;5047642;28;20046;-77
2022/08/29 11:39:05;;;;;;;3.35;1.90;;;37.30;31.10;;;;;;5061218;28;20422;-77
2022/08/29 11:41:43;;;;;;;3.13;2.10;;;37.40;31.90;;;;;;5071365;28;20404;-78
2022/08/29 11:44:18;;;;;;;2.43;1.90;;;37.40;30.00;;;;;;5061521;28;20263;-77
2022/08/29 11:46:47;;;;;;;2.40;1.95;;;37.40;31.10;;;;;;5071778;28;20020;-78
2022/08/29 11:49:22;;;;;;;3.15;1.92;;;37.40;31.00;;;;;;5056655;28;20104;-77
2022/08/29 11:51:54;;;;;;;4.32;2.00;;;37.40;30.30;;;;;;5056041;28;20028;-77
2022/08/29 11:54:22;;;;;;;3.47;2.20;;;37.40;30.50;;;;;;5055983;28;20284;-77
2022/08/29 11:57:11;;;;;;;2.87;2.20;;;37.40;30.30;;;;;;5069088;28;20036;-78
2022/08/29 12:00:05;;;;;;;2.97;1.88;;;37.50;30.80;;;;;;5044495;28;20028;-78
2022/08/29 12:02:30;;;;;;;2.75;2.00;;;37.60;30.00;;;;;;5061346;28;20527;-77
2022/08/29 12:04:56;;;;;;;2.87;2.20;;;37.70;31.10;;;;;;5069059;28;20064;-77
2022/08/29 12:07:57;;;;;;;2.97;2.20;;;37.70;30.60;;;;;;5047950;28;20031;-78
2022/08/29 12:10:29;;;;;;;3.00;1.77;;;37.90;29.90;;;;;;5051020;28;20036;-77
2022/08/29 12:12:58;;;;;;;2.90;2.20;;;38.00;29.70;;;;;;5070376;28;20112;-77
2022/08/29 12:15:33;;;;;;;2.90;2.10;;;38.10;29.90;;;;;;5051168;28;20211;-79
2022/08/29 12:17:59;;;;;;;2.42;2.10;;;38.30;29.50;;;;;;5077023;28;21351;-79
2022/08/29 12:20:32;;;;;;;2.83;2.40;;;38.30;29.60;;;;;;5034787;28;20044;-78
2022/08/29 12:23:04;;;;;;;3.90;2.07;;;38.40;28.70;;;;;;5049749;28;20024;-77
2022/08/29 12:25:42;;;;;;;3.30;1.90;;;38.40;28.90;;;;;;5067314;28;20016;-78
2022/08/29 12:28:19;;;;;;;3.17;2.30;;;38.50;28.80;;;;;;5063165;28;20024;-77
2022/08/29 12:30:57;;;;;;;3.10;1.80;;;38.70;29.30;;;;;;5043038;28;20732;-78
2022/08/29 12:33:26;;;;;;;2.35;2.15;;;38.80;28.90;;;;;;5071001;28;20245;-78
2022/08/29 12:36:01;;;;;;;2.37;2.00;;;38.80;28.40;;;;;;5041522;28;20120;-78
2022/08/29 12:38:50;;;;;;;2.72;2.15;;;38.70;28.00;;;;;;5068440;28;20028;-77
2022/08/29 12:41:27;;;;;;;3.38;2.08;;;38.40;27.60;;;;;;5058745;28;20524;-77
2022/08/29 12:43:56;;;;;;;2.50;2.00;;;38.10;27.20;;;;;;5075379;28;20032;-77
2022/08/29 12:46:28;;;;;;;2.90;2.00;;;37.90;27.80;;;;;;5055393;28;20221;-77
2022/08/29 12:49:04;;;;;;;2.13;1.70;;;37.70;27.60;;;;;;5068694;28;20039;-77
2022/08/29 12:51:39;;;;;;;2.75;1.80;;;37.60;27.70;;;;;;5056661;28;20499;-78
2022/08/29 12:54:07;;;;;;;2.85;1.95;;;37.50;27.60;;;;;;5053122;28;20111;-78
2022/08/29 12:56:33;;;;;;;4.07;1.70;;;37.50;28.30;;;;;;5070858;28;20060;-78
2022/08/29 12:59:02;;;;;;;2.97;2.00;;;37.40;28.00;;;;;;5071537;28;20023;-78
2022/08/29 13:01:36;;;;;;;2.60;1.60;;;37.30;27.70;;;;;;5047504;28;20099;-78
2022/08/29 13:04:13;;;;;;;2.70;1.70;;;37.20;27.70;;;;;;5071672;28;20095;-77
2022/08/29 13:06:57;;;;;;;2.70;1.58;;;37.00;28.10;;;;;;5063781;28;20028;-78
2022/08/29 13:09:27;;;;;;;2.70;1.40;;;36.90;28.00;;;;;;5063229;28;23607;-78
2022/08/29 13:12:16;;;;;;;2.50;1.52;;;36.90;27.90;;;;;;5087727;28;20087;-78